Time;durP1;ratioP1;P1;durP2;ratioP2;P2;SDS_P1;SDS_P2;PMS_P1;PMS_P2;Temp;Humidity;BMP_temperature;BMP_pressure;BME280_temperature;BME280_humidity;BME280_pressure;Samples;Min_cycle;Max_cycle;Signal;HPM_P1;HPM_P2
2021/11/16 00:00:03;;;;;;;6.32;3.30;;;;;;;6.81;80.57;96021.19;5109682;27;20043;-66
2021/11/16 00:02:37;;;;;;;9.13;4.00;;;;;;;6.88;80.19;96018.69;5107392;27;20097;-66
2021/11/16 00:05:04;;;;;;;7.10;3.85;;;;;;;6.74;80.72;96016.91;5092947;27;20131;-66
2021/11/16 00:07:32;;;;;;;6.97;3.05;;;;;;;6.71;81.72;96028.41;5109516;27;20075;-67
2021/11/16 00:09:59;;;;;;;6.88;3.58;;;;;;;6.70;81.87;96022.44;5106860;27;20044;-66
2021/11/16 00:12:26;;;;;;;5.78;3.03;;;;;;;6.73;81.72;96030.81;5109660;27;20055;-68
2021/11/16 00:14:53;;;;;;;6.30;3.40;;;;;;;6.77;81.77;96026.88;5107455;27;20044;-66
2021/11/16 00:17:20;;;;;;;7.63;3.55;;;;;;;6.74;81.64;96027.25;5089018;28;20043;-67
2021/11/16 00:19:49;;;;;;;7.47;3.22;;;;;;;6.70;81.56;96027.59;5103798;27;20051;-67
2021/11/16 00:22:18;;;;;;;5.78;2.83;;;;;;;6.72;82.44;96035.19;5089795;28;20062;-67
2021/11/16 00:27:34;;;;;;;10.25;4.90;;;;;;;6.77;82.62;96034.66;5108430;27;20043;-66
2021/11/16 00:30:02;;;;;;;7.65;3.80;;;;;;;6.58;83.76;96030.81;5103454;27;20052;-67
2021/11/16 00:32:28;;;;;;;7.82;3.78;;;;;;;6.72;82.77;96034.38;5104284;27;20105;-67
2021/11/16 00:34:55;;;;;;;6.70;3.63;;;;;;;6.85;82.56;96039.75;5115160;27;20051;-67
2021/11/16 00:37:25;;;;;;;8.07;4.07;;;;;;;6.87;82.30;96019.66;5109290;27;20077;-67
2021/11/16 00:40:02;;;;;;;5.47;3.10;;;;;;;6.97;82.05;96033.16;5109771;27;20427;-66
2021/11/16 00:42:29;;;;;;;5.30;3.08;;;;;;;7.10;81.43;96026.56;5107646;27;20047;-67
2021/11/16 00:44:56;;;;;;;6.60;3.45;;;;;;;7.02;81.51;96023.06;5101404;28;20116;-66
2021/11/16 00:47:23;;;;;;;6.10;3.47;;;;;;;7.05;81.26;96034.84;5106232;27;20511;-67
2021/11/16 00:49:51;;;;;;;5.53;3.70;;;;;;;7.04;81.08;96030.63;5106465;27;20048;-67
2021/11/16 00:52:19;;;;;;;9.93;4.40;;;;;;;7.03;80.93;96022.06;5085700;28;20048;-67
2021/11/16 00:54:46;;;;;;;6.80;3.42;;;;;;;7.00;81.32;96017.25;5101722;28;20052;-67
2021/11/16 00:57:13;;;;;;;6.75;3.28;;;;;;;7.13;81.09;96015.81;5111273;27;20043;-67
2021/11/16 00:59:40;;;;;;;6.10;2.92;;;;;;;7.13;81.33;96021.00;5105244;27;20043;-67
2021/11/16 01:02:07;;;;;;;7.53;4.28;;;;;;;6.98;81.76;96028.78;5107093;27;20562;-66
2021/11/16 01:04:34;;;;;;;8.07;3.92;;;;;;;6.94;81.64;96025.75;5106524;27;20047;-67
2021/11/16 01:07:02;;;;;;;6.05;3.15;;;;;;;6.78;82.71;96023.31;5105579;27;20483;-67
2021/11/16 01:09:29;;;;;;;7.18;3.58;;;;;;;6.68;83.38;96024.38;5101809;27;20067;-67
2021/11/16 01:11:56;;;;;;;5.68;3.30;;;;;;;6.85;83.11;96037.16;5111817;27;20056;-67
2021/11/16 01:14:23;;;;;;;5.88;3.60;;;;;;;6.95;82.48;96035.13;5103665;28;20059;-67
2021/11/16 01:16:50;;;;;;;5.95;3.90;;;;;;;7.00;81.77;96037.97;5103915;28;20932;-67
2021/11/16 01:19:17;;;;;;;8.32;4.00;;;;;;;6.72;82.48;96040.38;5103257;28;20048;-67
2021/11/16 01:21:44;;;;;;;6.18;3.25;;;;;;;6.54;83.70;96035.53;5106469;28;20047;-67
2021/11/16 01:24:13;;;;;;;6.60;4.07;;;;;;;6.45;83.10;96028.81;5101936;28;20540;-67
2021/11/16 01:26:43;;;;;;;7.10;4.35;;;;;;;6.56;82.89;96046.50;5101762;28;20045;-67
2021/11/16 01:29:10;;;;;;;8.68;4.65;;;;;;;6.35;86.08;96030.84;5106751;28;20040;-67
2021/11/16 01:31:36;;;;;;;9.77;4.60;;;;;;;6.37;87.26;96045.19;5106849;28;20482;-67
2021/11/16 01:34:06;;;;;;;9.68;4.82;;;;;;;6.31;88.07;96038.94;5105629;28;20044;-67
2021/11/16 01:36:33;;;;;;;8.75;4.57;;;;;;;6.32;88.24;96040.56;5109591;28;20043;-67
2021/11/16 01:39:01;;;;;;;8.48;4.75;;;;;;;6.20;88.97;96043.75;5106353;28;20035;-67
2021/11/16 01:41:30;;;;;;;12.25;6.32;;;;;;;6.22;87.82;96034.81;5103137;28;20097;-67
2021/11/16 01:44:00;;;;;;;7.93;4.65;;;;;;;6.13;87.72;96039.25;5101064;28;20051;-67
2021/11/16 01:46:26;;;;;;;9.13;3.97;;;;;;;6.10;87.97;96041.38;5104178;28;20051;-67
2021/11/16 01:48:56;;;;;;;8.30;3.67;;;;;;;6.00;88.50;96045.97;5101267;28;20121;-67
2021/11/16 01:51:29;;;;;;;7.88;4.00;;;;;;;6.00;88.02;96040.81;5103500;28;20045;-67
2021/11/16 01:54:02;;;;;;;6.33;3.73;;;;;;;5.91;88.07;96038.25;5103853;28;20803;-67
2021/11/16 01:56:38;;;;;;;9.13;3.70;;;;;;;5.92;88.12;96034.69;5105978;27;20449;-67
2021/11/16 01:59:05;;;;;;;7.30;4.13;;;;;;;5.97;88.19;96035.97;5116099;27;20047;-67
2021/11/16 02:01:33;;;;;;;9.70;4.03;;;;;;;5.94;88.65;96037.91;5105908;27;20501;-67
2021/11/16 02:04:02;;;;;;;8.32;4.05;;;;;;;5.91;88.17;96027.91;5106030;27;20051;-67
2021/11/16 02:06:33;;;;;;;9.35;3.88;;;;;;;5.96;88.55;96031.78;5107658;27;20046;-67
2021/11/16 02:09:04;;;;;;;8.93;4.43;;;;;;;6.05;87.95;96035.91;5109364;27;20036;-67
2021/11/16 02:11:30;;;;;;;7.97;4.82;;;;;;;6.04;88.41;96032.53;5106844;27;20440;-67
2021/11/16 02:13:59;;;;;;;7.05;4.13;;;;;;;6.05;89.25;96030.72;5109768;27;20085;-67
2021/11/16 02:16:27;;;;;;;6.93;4.22;;;;;;;6.01;88.98;96021.72;5113648;27;20049;-67
2021/11/16 02:18:54;;;;;;;8.23;4.55;;;;;;;6.02;88.63;96028.50;5103995;27;20472;-67
2021/11/16 02:21:21;;;;;;;7.78;4.15;;;;;;;6.19;88.23;96022.22;5109707;27;20043;-68
2021/11/16 02:23:48;;;;;;;10.48;4.43;;;;;;;6.21;87.66;96017.69;5107832;27;20047;-67
2021/11/16 02:26:15;;;;;;;9.30;4.47;;;;;;;6.21;87.29;95999.59;5103975;27;20039;-67
2021/11/16 02:28:44;;;;;;;9.00;4.50;;;;;;;6.35;87.42;96013.53;5107667;27;20097;-67
2021/11/16 02:31:13;;;;;;;9.68;3.72;;;;;;;6.30;86.81;96001.13;5107949;27;20416;-67
2021/11/16 02:33:41;;;;;;;8.70;4.38;;;;;;;6.14;87.87;95990.91;5111198;27;20118;-67
2021/11/16 02:36:08;;;;;;;8.52;4.22;;;;;;;6.22;87.55;96024.47;5106578;27;20803;-67
2021/11/16 02:38:36;;;;;;;10.98;3.97;;;;;;;6.24;87.45;96014.75;5111618;27;21033;-67
2021/11/16 02:41:04;;;;;;;9.00;4.20;;;;;;;6.35;87.33;96012.72;5108930;27;20044;-67
2021/11/16 02:43:36;;;;;;;8.85;4.75;;;;;;;6.40;86.17;96005.25;5110588;27;20043;-67
2021/11/16 02:46:03;;;;;;;6.97;3.67;;;;;;;6.26;86.34;96005.03;5111551;27;20049;-67
2021/11/16 02:48:32;;;;;;;6.55;3.83;;;;;;;6.27;86.82;96011.81;5107223;27;20142;-67
2021/11/16 02:51:02;;;;;;;8.07;3.15;;;;;;;6.27;86.39;96006.63;5110776;27;20084;-67
2021/11/16 02:53:29;;;;;;;8.00;3.75;;;;;;;6.15;86.63;95982.16;5112293;27;20043;-67
2021/11/16 02:55:57;;;;;;;6.68;3.42;;;;;;;6.37;86.14;96006.38;5109464;27;20058;-67
2021/11/16 02:58:25;;;;;;;5.50;3.03;;;;;;;6.38;85.80;96007.22;5107359;27;20046;-67
2021/11/16 03:00:56;;;;;;;7.72;3.53;;;;;;;6.31;86.53;96007.88;5109373;27;20062;-67
2021/11/16 03:03:23;;;;;;;5.10;2.97;;;;;;;6.41;86.33;96006.84;5104923;27;20819;-67
2021/11/16 03:05:50;;;;;;;7.57;3.03;;;;;;;6.45;86.00;96008.91;5103158;27;20056;-67
2021/11/16 03:08:23;;;;;;;5.93;3.25;;;;;;;6.43;85.89;96015.25;5103904;27;20062;-67
2021/11/16 03:11:02;;;;;;;5.07;3.33;;;;;;;6.43;86.22;96010.06;5103551;28;20051;-66
2021/11/16 03:13:32;;;;;;;5.95;3.50;;;;;;;6.44;86.12;96009.09;5106521;27;20059;-67
2021/11/16 03:15:59;;;;;;;8.40;3.40;;;;;;;6.53;85.95;96009.81;5103009;28;20500;-67
2021/11/16 03:18:26;;;;;;;6.40;3.03;;;;;;;6.39;85.32;95998.44;5104593;27;20044;-67
2021/11/16 03:20:53;;;;;;;7.28;3.60;;;;;;;6.45;85.20;96003.72;5109713;27;20067;-67
2021/11/16 03:23:23;;;;;;;5.88;3.17;;;;;;;6.47;85.30;96011.31;5110557;27;20429;-67
2021/11/16 03:25:54;;;;;;;4.95;3.17;;;;;;;6.46;84.95;96009.72;5105687;27;20053;-68
2021/11/16 03:28:23;;;;;;;7.78;3.25;;;;;;;6.50;85.64;96005.81;5108532;27;20039;-67
2021/11/16 03:30:53;;;;;;;6.40;3.38;;;;;;;6.51;84.75;96005.59;5106125;27;20454;-67
2021/11/16 03:33:23;;;;;;;8.38;4.18;;;;;;;6.31;84.61;95992.38;5108062;27;20059;-67
2021/11/16 03:35:50;;;;;;;8.95;2.58;;;;;;;6.29;85.59;95999.50;5113198;27;20040;-67
2021/11/16 03:38:19;;;;;;;4.85;3.10;;;;;;;6.23;86.86;96010.56;5108907;27;20077;-67
2021/11/16 03:40:47;;;;;;;6.25;3.53;;;;;;;6.27;86.21;96006.63;5110821;27;20035;-66
2021/11/16 03:43:16;;;;;;;10.52;4.68;;;;;;;6.32;85.88;96008.72;5104437;27;20043;-67
2021/11/16 03:45:43;;;;;;;8.55;4.25;;;;;;;6.29;85.25;96004.69;5107095;27;20031;-67
2021/11/16 03:48:10;;;;;;;6.35;3.40;;;;;;;6.25;85.71;96016.38;5114113;27;20074;-66
2021/11/16 03:50:40;;;;;;;8.00;3.95;;;;;;;6.14;86.56;96016.78;5111472;27;20044;-67
2021/11/16 03:53:10;;;;;;;9.20;3.25;;;;;;;6.00;87.59;96025.28;5105932;27;20119;-66
2021/11/16 03:55:41;;;;;;;6.45;3.03;;;;;;;6.05;87.37;96028.16;5105463;27;20067;-67
2021/11/16 03:58:12;;;;;;;6.70;3.03;;;;;;;6.26;86.77;96006.81;5112592;27;20045;-67
2021/11/16 04:00:51;;;;;;;6.50;3.22;;;;;;;6.50;86.06;96014.38;5092833;27;20055;-67
2021/11/16 04:03:21;;;;;;;6.82;3.65;;;;;;;6.66;84.45;96010.81;5104461;27;20050;-66
2021/11/16 04:05:48;;;;;;;6.50;3.67;;;;;;;6.83;83.46;96010.66;5093650;28;20054;-67
2021/11/16 04:08:15;;;;;;;6.97;3.38;;;;;;;6.89;83.01;96004.75;5110161;27;20040;-67
2021/11/16 04:10:42;;;;;;;5.50;3.53;;;;;;;6.98;82.54;95998.50;5106848;27;20531;-67
2021/11/16 04:13:11;;;;;;;10.35;3.85;;;;;;;7.06;81.85;96006.19;5103145;27;20047;-67
2021/11/16 04:15:40;;;;;;;5.85;3.00;;;;;;;7.02;81.12;95979.03;5106930;27;20061;-67
2021/11/16 04:18:07;;;;;;;7.65;3.22;;;;;;;7.22;80.48;95996.59;5105733;27;20028;-67
2021/11/16 04:20:39;;;;;;;7.50;3.92;;;;;;;7.23;80.48;96011.16;5084682;28;20093;-67
2021/11/16 04:23:08;;;;;;;7.68;3.83;;;;;;;7.19;80.59;96012.53;5088518;27;20073;-67
2021/11/16 04:25:37;;;;;;;6.45;3.97;;;;;;;7.04;80.61;96005.56;5102488;27;20051;-67
2021/11/16 04:28:06;;;;;;;7.82;3.95;;;;;;;6.96;81.12;96007.44;5101483;28;20036;-67
2021/11/16 04:30:33;;;;;;;6.38;3.40;;;;;;;7.04;81.10;96002.97;5107379;27;20047;-66
2021/11/16 04:33:01;;;;;;;9.20;4.50;;;;;;;6.88;81.42;96008.34;5108377;27;20048;-67
2021/11/16 04:35:29;;;;;;;6.07;3.53;;;;;;;6.85;81.75;96008.69;5111650;27;20047;-67
2021/11/16 04:37:59;;;;;;;13.85;6.32;;;;;;;6.93;81.00;96006.00;5113691;27;20512;-67
2021/11/16 04:40:35;;;;;;;8.95;4.82;;;;;;;6.81;81.62;96003.06;5108287;27;20563;-67
2021/11/16 04:43:06;;;;;;;9.93;4.95;;;;;;;6.83;81.67;96000.28;5110369;27;20053;-67
2021/11/16 04:45:35;;;;;;;9.48;4.63;;;;;;;6.66;81.54;95997.88;5103781;27;20036;-67
2021/11/16 04:48:10;;;;;;;8.90;3.83;;;;;;;6.44;82.29;95986.59;5104126;28;20035;-67
2021/11/16 05:03:54;;;;;;;8.68;4.85;;;;;;;5.99;84.69;96008.16;5109485;27;20046;-67
2021/11/16 05:06:26;;;;;;;13.45;4.60;;;;;;;5.92;85.53;95998.50;5104334;27;20413;-67
2021/11/16 05:08:53;;;;;;;13.10;5.25;;;;;;;5.87;85.35;96005.94;5112633;27;20184;-67
2021/11/16 05:11:21;;;;;;;9.70;5.10;;;;;;;5.90;88.75;96010.75;5111902;27;20066;-67
2021/11/16 05:13:48;;;;;;;13.80;6.07;;;;;;;5.80;90.77;96015.38;5108382;28;20051;-67
2021/11/16 05:16:17;;;;;;;16.75;6.03;;;;;;;5.71;91.63;96016.41;5103948;27;20119;-67
2021/11/16 05:18:44;;;;;;;19.23;9.95;;;;;;;5.67;92.50;96007.34;5099982;28;20043;-67
2021/11/16 05:21:12;;;;;;;12.10;5.97;;;;;;;5.66;93.07;96019.50;5105408;28;20054;-66
2021/11/16 05:23:52;;;;;;;14.82;6.63;;;;;;;5.57;93.97;96009.38;5101475;28;20471;-66
2021/11/16 05:26:24;;;;;;;12.55;5.88;;;;;;;5.50;94.86;96010.03;5101627;28;20454;-67
2021/11/16 05:28:51;;;;;;;16.90;6.55;;;;;;;5.52;94.42;96002.91;5107924;28;20051;-67
2021/11/16 05:31:18;;;;;;;19.10;9.27;;;;;;;5.52;95.14;96018.41;5109937;27;20051;-67
2021/11/16 05:33:48;;;;;;;17.42;7.47;;;;;;;5.49;95.10;96003.28;5105225;28;20108;-67
2021/11/16 05:36:16;;;;;;;15.00;8.68;;;;;;;5.45;95.12;95994.25;5107844;27;20035;-67
2021/11/16 05:38:46;;;;;;;32.90;14.85;;;;;;;5.58;94.43;95995.47;5113563;27;20039;-68
2021/11/16 05:41:14;;;;;;;19.27;8.80;;;;;;;5.60;93.96;95993.50;5108099;27;20096;-67
2021/11/16 05:43:43;;;;;;;47.63;24.80;;;;;;;5.68;93.26;96011.56;5108507;27;20377;-67
2021/11/16 05:46:10;;;;;;;37.38;18.13;;;;;;;5.80;93.15;96015.38;5104317;28;20044;-67
2021/11/16 05:48:39;;;;;;;22.42;11.68;;;;;;;5.90;93.08;96003.00;5109632;27;20042;-67
2021/11/16 05:51:07;;;;;;;36.60;17.80;;;;;;;6.06;92.23;96015.03;5107421;27;20036;-67
2021/11/16 05:53:36;;;;;;;24.42;12.90;;;;;;;6.01;92.16;96021.72;5109548;27;20036;-67
2021/11/16 05:56:04;;;;;;;23.08;11.43;;;;;;;5.95;92.90;96023.19;5094148;27;20392;-67
2021/11/16 05:58:31;;;;;;;47.95;24.05;;;;;;;5.99;92.51;96034.03;5103941;28;20040;-67
2021/11/16 06:00:58;;;;;;;70.93;33.65;;;;;;;5.91;92.87;96033.06;5107568;27;20788;-67
2021/11/16 06:03:25;;;;;;;68.80;34.67;;;;;;;6.06;92.07;96032.34;5107387;27;20043;-67
2021/11/16 06:05:52;;;;;;;32.03;18.38;;;;;;;5.98;92.17;96034.97;5102410;27;20035;-66
2021/11/16 06:08:24;;;;;;;21.00;10.27;;;;;;;5.93;92.65;96038.88;5103685;27;20044;-67
2021/11/16 06:10:53;;;;;;;23.15;11.95;;;;;;;5.98;92.72;96037.56;5102319;27;20054;-67
2021/11/16 06:13:20;;;;;;;26.92;11.60;;;;;;;6.01;92.28;96042.41;5103728;27;20048;-67
2021/11/16 06:15:48;;;;;;;26.33;12.63;;;;;;;6.03;92.31;96051.63;5087599;27;20501;-67
2021/11/16 06:18:15;;;;;;;20.27;10.75;;;;;;;5.99;92.56;96052.91;5105990;27;20036;-67
2021/11/16 06:20:44;;;;;;;39.35;21.65;;;;;;;5.87;93.00;96057.66;5108026;27;20583;-67
2021/11/16 06:23:11;;;;;;;24.33;13.00;;;;;;;5.88;92.63;96048.91;5107097;27;20036;-67
2021/11/16 06:25:39;;;;;;;12.13;6.07;;;;;;;5.95;92.50;96046.47;5106108;27;20043;-66
2021/11/16 06:28:07;;;;;;;8.30;4.88;;;;;;;6.04;90.28;96049.81;5113101;27;20105;-67
2021/11/16 06:30:35;;;;;;;10.07;4.75;;;;;;;6.04;89.42;96040.28;5090023;28;20032;-67
2021/11/16 06:33:02;;;;;;;13.68;7.03;;;;;;;6.10;88.81;96049.13;5107934;27;20048;-67
2021/11/16 06:35:30;;;;;;;17.33;9.65;;;;;;;6.13;89.09;96046.19;5111359;27;20040;-66
2021/11/16 06:37:59;;;;;;;8.77;5.13;;;;;;;6.22;89.18;96049.53;5109539;27;20051;-67
2021/11/16 06:40:26;;;;;;;19.15;13.07;;;;;;;6.25;87.88;96047.41;5107059;27;20036;-67
2021/11/16 06:42:55;;;;;;;12.48;6.65;;;;;;;6.29;88.24;96046.06;5108190;27;20047;-67
2021/11/16 06:45:21;;;;;;;11.88;4.60;;;;;;;6.34;86.99;96034.38;5108858;27;20048;-67
2021/11/16 06:47:48;;;;;;;9.00;4.63;;;;;;;6.43;87.13;96041.13;5104428;27;20047;-67
2021/11/16 06:50:16;;;;;;;8.57;4.47;;;;;;;6.39;86.69;96024.31;5108936;27;20032;-67
2021/11/16 06:52:43;;;;;;;11.20;5.07;;;;;;;6.46;86.25;96040.75;5106446;27;20044;-67
2021/11/16 06:55:10;;;;;;;10.93;4.65;;;;;;;6.53;85.98;96031.31;5105431;27;20054;-67
2021/11/16 06:57:38;;;;;;;8.68;4.57;;;;;;;6.71;86.10;96038.75;5107996;27;20100;-67
2021/11/16 07:00:07;;;;;;;12.18;6.43;;;;;;;6.73;85.49;96041.16;5113348;27;20130;-67
2021/11/16 07:02:35;;;;;;;11.40;5.85;;;;;;;6.66;85.05;96047.06;5106743;27;20036;-67
2021/11/16 07:05:12;;;;;;;7.43;4.28;;;;;;;6.73;85.00;96041.16;5110636;27;20497;-67
2021/11/16 07:07:45;;;;;;;15.00;6.38;;;;;;;6.73;84.86;96046.34;5107480;27;20044;-67
2021/11/16 07:10:17;;;;;;;8.43;4.70;;;;;;;6.66;84.71;96051.41;5105878;27;20048;-67
2021/11/16 07:12:44;;;;;;;9.25;4.50;;;;;;;6.73;85.68;96051.53;5105253;27;20032;-67
2021/11/16 07:15:12;;;;;;;12.05;6.55;;;;;;;6.80;85.85;96049.84;5109848;27;20040;-67
2021/11/16 07:17:39;;;;;;;12.63;5.18;;;;;;;6.80;84.69;96052.44;5108199;27;20051;-67
2021/11/16 07:20:07;;;;;;;7.40;4.03;;;;;;;6.84;85.15;96058.84;5105689;27;20028;-67
2021/11/16 07:22:36;;;;;;;14.50;6.70;;;;;;;6.85;84.43;96061.28;5108838;27;20042;-67
2021/11/16 07:25:08;;;;;;;8.57;4.80;;;;;;;6.84;84.04;96058.84;5108397;27;20056;-67
2021/11/16 07:27:44;;;;;;;8.88;3.88;;;;;;;6.89;84.59;96066.91;5113385;27;21061;-67
2021/11/16 07:30:25;;;;;;;22.08;7.70;;;;;;;6.99;84.73;96071.84;5104604;27;20039;-67
2021/11/16 07:32:51;;;;;;;19.70;9.05;;;;;;;6.94;84.52;96080.13;5111259;27;20051;-66
2021/11/16 07:35:25;;;;;;;30.00;11.55;;;;;;;6.75;83.83;96072.88;5108095;27;20047;-66
2021/11/16 07:37:56;;;;;;;15.73;8.35;;;;;;;6.69;85.18;96059.63;5104816;27;20051;-67
2021/11/16 07:40:23;;;;;;;10.18;5.05;;;;;;;6.73;84.93;96067.06;5111285;27;20122;-67
2021/11/16 07:42:53;;;;;;;7.60;4.20;;;;;;;6.79;84.47;96066.34;5113651;27;20040;-67
2021/11/16 07:45:23;;;;;;;8.38;4.97;;;;;;;6.82;85.21;96066.00;5102818;27;20044;-67
2021/11/16 07:47:59;;;;;;;10.60;4.85;;;;;;;6.88;84.87;96065.31;5108899;27;20423;-66
2021/11/16 07:50:32;;;;;;;9.07;4.13;;;;;;;6.92;85.00;96061.38;5084981;28;20055;-66
2021/11/16 07:53:07;;;;;;;9.15;4.00;;;;;;;6.97;84.26;96064.25;5100292;27;20451;-66
2021/11/16 07:55:35;;;;;;;9.23;4.45;;;;;;;6.95;85.40;96071.41;5105420;27;20039;-67
2021/11/16 07:58:08;;;;;;;7.03;3.72;;;;;;;6.89;84.76;96064.31;5112491;27;20420;-67
2021/11/16 08:00:39;;;;;;;7.82;4.50;;;;;;;6.91;84.29;96059.75;5105167;27;20187;-67
2021/11/16 08:03:21;;;;;;;9.90;4.40;;;;;;;7.08;85.04;96061.22;5107589;27;20431;-68
2021/11/16 08:14:06;;;;;;;14.93;6.10;;;;;;;7.28;84.41;96065.84;5103935;27;20070;-68
2021/11/16 08:16:48;;;;;;;9.15;5.57;;;;;;;7.21;83.73;96044.22;5099075;27;20047;-67
2021/11/16 08:19:19;;;;;;;11.02;5.65;;;;;;;7.35;82.61;96060.75;5096261;27;20044;-67
2021/11/16 08:21:46;;;;;;;8.88;4.38;;;;;;;7.37;83.12;96054.41;5098266;27;20596;-67
2021/11/16 08:24:16;;;;;;;13.40;6.80;;;;;;;7.45;82.98;96056.91;5099504;27;20063;-68
2021/11/16 08:26:46;;;;;;;9.02;4.85;;;;;;;7.47;82.18;96060.13;5103416;27;20401;-68
2021/11/16 08:29:17;;;;;;;14.60;6.78;;;;;;;7.53;82.31;96057.78;5101189;27;20048;-68
2021/11/16 08:32:09;;;;;;;11.63;6.43;;;;;;;7.54;82.43;96054.19;5102631;27;20055;-68
2021/11/16 08:34:39;;;;;;;11.82;5.63;;;;;;;7.68;82.85;96061.16;5098730;27;20059;-68
2021/11/16 08:37:08;;;;;;;10.50;5.45;;;;;;;7.92;82.01;96056.63;5098390;27;20055;-68
2021/11/16 08:39:55;;;;;;;9.20;4.53;;;;;;;7.94;80.81;96054.63;5099561;27;20036;-67
2021/11/16 08:42:30;;;;;;;8.05;4.38;;;;;;;8.06;80.56;96052.38;5102922;28;20417;-67
2021/11/16 08:45:05;;;;;;;10.60;4.90;;;;;;;8.14;80.18;96060.84;5106588;27;20062;-68
2021/11/16 08:47:48;;;;;;;8.52;5.15;;;;;;;8.03;79.76;96056.94;5085567;27;20043;-67
2021/11/16 08:50:22;;;;;;;11.85;5.95;;;;;;;8.11;80.40;96050.81;5102896;27;20032;-67
2021/11/16 08:52:49;;;;;;;9.48;4.70;;;;;;;7.95;80.93;96061.44;5101580;27;20481;-67
2021/11/16 08:55:19;;;;;;;10.13;4.43;;;;;;;7.94;80.54;96054.63;5101108;28;20036;-67
2021/11/16 08:57:49;;;;;;;11.40;5.80;;;;;;;8.22;80.89;96042.53;5101184;27;20039;-68
2021/11/16 09:00:28;;;;;;;10.85;4.68;;;;;;;8.49;79.93;96053.19;5099998;27;20764;-68
2021/11/16 09:03:13;;;;;;;9.90;4.43;;;;;;;8.20;79.30;96054.91;5098101;27;20450;-68
2021/11/16 09:05:45;;;;;;;6.57;3.85;;;;;;;8.31;80.65;96050.22;5101493;28;20043;-68
2021/11/16 09:08:25;;;;;;;10.43;4.07;;;;;;;8.43;79.56;96048.75;5108514;27;20035;-68
2021/11/16 09:10:58;;;;;;;19.52;9.65;;;;;;;8.46;78.79;96048.34;5101167;28;20040;-67
2021/11/16 09:13:29;;;;;;;11.82;5.47;;;;;;;8.47;78.72;96042.19;5097629;28;20055;-67
2021/11/16 09:16:03;;;;;;;11.77;5.45;;;;;;;8.39;77.90;96031.88;5111047;27;20097;-67
2021/11/16 09:18:38;;;;;;;10.07;4.60;;;;;;;8.51;78.45;96019.25;5107147;28;20419;-67
2021/11/16 09:21:09;;;;;;;4.82;2.97;;;;;;;8.61;77.37;96015.31;5103182;28;20066;-67
2021/11/16 09:23:43;;;;;;;6.00;3.78;;;;;;;8.72;78.33;96032.19;5112557;28;20043;-67
2021/11/16 09:26:20;;;;;;;6.63;4.55;;;;;;;8.75;78.05;96031.00;5113280;28;20050;-67
2021/11/16 09:28:54;;;;;;;8.35;4.10;;;;;;;8.75;77.72;96025.78;5110034;28;20054;-67
2021/11/16 09:31:21;;;;;;;;;;;;;;;8.77;77.54;96026.44;5108402;28;20032;-68
2021/11/16 09:33:50;;;;;;;7.63;3.72;;;;;;;8.65;77.92;96025.34;5107258;28;19924;-67
2021/11/16 09:36:29;;;;;;;8.38;3.72;;;;;;;8.66;79.35;96006.97;5109169;28;20044;-67
2021/11/16 09:38:59;;;;;;;7.43;3.13;;;;;;;8.81;77.84;96019.84;5105164;28;20043;-68
2021/11/16 09:41:57;;;;;;;4.78;2.88;;;;;;;8.57;77.57;95998.53;5103233;28;20048;-67
2021/11/16 09:44:33;;;;;;;3.92;2.67;;;;;;;8.79;78.35;96016.66;5102528;28;20043;-68
2021/11/16 09:47:16;;;;;;;5.60;3.00;;;;;;;8.71;77.51;95999.41;5097109;28;20040;-67
2021/11/16 09:49:46;;;;;;;4.50;2.38;;;;;;;8.83;78.65;96002.28;5100895;28;20058;-67
2021/11/16 09:52:20;;;;;;;5.43;3.10;;;;;;;8.85;77.68;96005.47;5117546;28;20486;-67
2021/11/16 09:55:05;;;;;;;7.45;3.42;;;;;;;8.84;78.49;95998.69;5105890;28;20531;-68
2021/11/16 09:57:40;;;;;;;8.77;4.60;;;;;;;8.93;77.61;96005.34;5094244;28;20101;-67
2021/11/16 10:00:12;;;;;;;11.15;6.88;;;;;;;8.86;77.25;96001.09;5114402;28;20032;-68
2021/11/16 10:02:43;;;;;;;10.68;5.40;;;;;;;8.79;78.14;95985.47;5109449;28;20049;-67
2021/11/16 10:05:20;;;;;;;10.75;4.72;;;;;;;8.90;79.43;95992.72;5103548;28;20039;-67
2021/11/16 10:08:02;;;;;;;4.90;3.58;;;;;;;8.91;79.30;95978.75;5103729;28;20051;-67
2021/11/16 10:10:32;;;;;;;12.15;5.70;;;;;;;8.92;79.35;95979.56;5102223;28;20119;-67
2021/11/16 10:13:08;;;;;;;11.02;6.13;;;;;;;8.95;78.15;95974.78;5102115;28;20040;-67
2021/11/16 10:15:39;;;;;;;6.00;4.07;;;;;;;8.73;78.49;95981.03;5104898;28;20044;-67
2021/11/16 10:18:08;;;;;;;7.43;5.18;;;;;;;8.79;79.17;95977.69;5109957;27;20055;-67
2021/11/16 10:20:38;;;;;;;9.00;3.65;;;;;;;8.84;78.86;95971.91;5107406;27;20043;-67
2021/11/16 10:23:29;;;;;;;8.10;3.65;;;;;;;8.93;79.58;95971.56;5114477;27;20051;-67
2021/11/16 10:25:58;;;;;;;5.32;2.88;;;;;;;8.93;79.49;95962.94;5117362;27;20058;-67
2021/11/16 10:28:27;;;;;;;3.35;2.35;;;;;;;8.85;79.79;95960.53;5119381;27;20039;-67
2021/11/16 10:31:01;;;;;;;10.30;4.20;;;;;;;8.86;80.07;95949.94;5106817;27;20035;-67
2021/11/16 10:33:33;;;;;;;5.32;3.22;;;;;;;8.88;79.57;95953.16;5109292;27;20073;-67
2021/11/16 10:36:15;;;;;;;6.03;3.20;;;;;;;8.69;80.83;95953.84;5102326;27;20105;-67
2021/11/16 10:38:45;;;;;;;5.07;3.17;;;;;;;8.63;81.48;95945.03;5096406;27;20044;-67
2021/11/16 10:41:18;;;;;;;10.35;5.20;;;;;;;8.68;81.62;95941.84;5108910;27;20035;-67
2021/11/16 10:43:49;;;;;;;8.57;5.85;;;;;;;8.59;82.90;95949.78;5104700;28;20090;-67
2021/11/16 10:46:18;;;;;;;9.75;4.70;;;;;;;8.65;82.35;95942.25;5107804;27;20048;-67
2021/11/16 10:48:50;;;;;;;5.40;3.40;;;;;;;8.68;81.77;95941.84;5110303;27;20583;-67
2021/11/16 10:51:18;;;;;;;9.35;4.53;;;;;;;8.72;82.21;95932.69;5108435;27;20032;-67
2021/11/16 10:53:49;;;;;;;7.85;4.03;;;;;;;8.74;81.91;95941.88;5108317;27;20047;-67
2021/11/16 10:56:26;;;;;;;4.50;3.00;;;;;;;8.90;82.87;95932.97;5109213;27;20101;-67
2021/11/16 10:58:55;;;;;;;6.47;2.78;;;;;;;8.78;82.48;95926.72;5109040;27;20047;-67
2021/11/16 11:01:24;;;;;;;6.63;3.53;;;;;;;8.63;82.25;95924.25;5109522;27;20047;-67
2021/11/16 11:03:54;;;;;;;7.57;3.97;;;;;;;8.72;83.23;95932.69;5103103;28;20484;-67
2021/11/16 11:06:31;;;;;;;10.30;3.50;;;;;;;8.61;83.50;95927.03;5107799;27;20046;-67
2021/11/16 11:09:04;;;;;;;5.65;3.08;;;;;;;8.59;83.54;95918.63;5111481;27;20059;-68
2021/11/16 11:11:35;;;;;;;6.88;2.55;;;;;;;8.51;83.77;95915.38;5098478;27;20036;-69
2021/11/16 11:14:17;;;;;;;6.78;3.63;;;;;;;8.44;84.33;95925.72;5105841;27;20074;-68
2021/11/16 11:16:59;;;;;;;5.97;3.10;;;;;;;8.39;84.77;95917.66;5106300;28;20050;-68
2021/11/16 11:19:31;;;;;;;7.97;3.75;;;;;;;8.38;84.64;95916.06;5103877;27;20048;-68
2021/11/16 11:22:23;;;;;;;6.95;3.92;;;;;;;8.32;84.59;95922.84;5106097;27;20032;-68
2021/11/16 11:27:58;;;;;;;6.57;3.22;;;;;;;8.29;88.70;95927.59;5112365;27;20043;-68
2021/11/16 11:30:25;;;;;;;5.28;2.95;;;;;;;8.16;89.92;95923.13;5107156;27;20031;-68
2021/11/16 11:32:53;;;;;;;4.38;2.67;;;;;;;7.77;91.79;95883.69;5108680;27;20055;-68
2021/11/16 11:35:24;;;;;;;4.28;3.17;;;;;;;7.89;93.93;95911.75;5098037;27;20116;-68
2021/11/16 11:37:54;;;;;;;14.27;6.63;;;;;;;7.78;93.70;95906.06;5102223;27;20058;-68
2021/11/16 11:40:33;;;;;;;8.43;4.35;;;;;;;7.72;94.14;95927.53;5103046;27;20044;-68
2021/11/16 11:43:03;;;;;;;7.85;4.40;;;;;;;7.72;95.49;95922.34;5107186;27;20047;-68
2021/11/16 11:45:35;;;;;;;6.53;3.50;;;;;;;7.65;96.27;95926.66;5100393;27;20043;-67
2021/11/16 11:48:22;;;;;;;9.93;4.53;;;;;;;7.51;96.50;95919.75;5099695;28;20043;-67
2021/11/16 11:50:50;;;;;;;6.95;4.10;;;;;;;7.55;97.75;95927.00;5102727;27;20039;-68
2021/11/16 11:53:23;;;;;;;5.93;3.65;;;;;;;7.53;99.68;95928.19;5084429;28;20059;-68
2021/11/16 11:55:53;;;;;;;6.32;3.55;;;;;;;7.43;99.89;95928.47;5100435;27;20057;-68
2021/11/16 11:58:21;;;;;;;7.53;3.85;;;;;;;7.40;100.00;95924.47;5101709;27;20047;-68
2021/11/16 12:00:52;;;;;;;7.18;4.05;;;;;;;7.42;100.00;95927.66;5104406;27;20416;-68
2021/11/16 12:03:21;;;;;;;8.90;5.25;;;;;;;7.47;100.00;95925.31;5099628;27;20795;-68
2021/11/16 12:05:48;;;;;;;8.57;5.45;;;;;;;7.44;100.00;95915.31;5098939;28;20043;-68
2021/11/16 12:08:16;;;;;;;8.32;4.43;;;;;;;7.46;100.00;95913.34;5105042;27;20050;-68
2021/11/16 12:10:49;;;;;;;7.95;3.80;;;;;;;7.37;100.00;95914.44;5107869;27;20048;-68
2021/11/16 12:13:21;;;;;;;14.65;6.78;;;;;;;7.43;100.00;95912.91;5098476;28;20063;-68
2021/11/16 12:15:57;;;;;;;21.92;11.23;;;;;;;7.37;100.00;95917.03;5101830;27;20058;-68
2021/11/16 12:18:36;;;;;;;7.10;4.03;;;;;;;7.37;100.00;95911.84;5099834;27;20040;-67
2021/11/16 12:21:04;;;;;;;11.00;6.03;;;;;;;7.40;99.97;95902.91;5107131;27;20378;-67